Time;durP1;ratioP1;P1;durP2;ratioP2;P2;SDS_P1;SDS_P2;PMS_P1;PMS_P2;Temp;Humidity;BMP_temperature;BMP_pressure;BME280_temperature;BME280_humidity;BME280_pressure;Samples;Min_cycle;Max_cycle;Signal;HPM_P1;HPM_P2
2021/03/16 00:00:16;;;;;;;235.95;77.68;;;;;;;1.40;57.57;97663.00;5111340;28;20106;-79
2021/03/16 00:02:42;;;;;;;239.95;77.85;;;;;;;1.38;57.41;97664.31;5111554;28;20035;-78
2021/03/16 00:05:08;;;;;;;241.60;78.25;;;;;;;1.34;57.59;97664.03;5110862;28;20054;-78
2021/03/16 00:07:33;;;;;;;227.98;76.63;;;;;;;1.31;57.70;97664.53;5110230;28;20051;-79
2021/03/16 00:09:59;;;;;;;194.57;70.97;;;;;;;1.26;57.40;97665.28;5110877;28;20440;-79
2021/03/16 00:12:24;;;;;;;195.20;71.43;;;;;;;1.24;57.57;97672.03;5110655;28;20072;-79
2021/03/16 00:14:49;;;;;;;203.20;72.15;;;;;;;1.31;57.99;97668.03;5092378;28;20514;-79
2021/03/16 00:17:16;;;;;;;201.55;70.90;;;;;;;1.39;58.20;97674.06;5110603;28;20038;-79
2021/03/16 00:19:41;;;;;;;203.73;72.13;;;;;;;1.44;58.00;97677.59;5110825;28;20031;-80
2021/03/16 00:22:07;;;;;;;195.93;73.13;;;;;;;1.49;58.05;97666.84;5110688;28;20035;-79
2021/03/16 00:24:32;;;;;;;204.93;78.65;;;;;;;1.52;58.11;97672.81;5110712;28;20054;-80
2021/03/16 00:26:58;;;;;;;207.15;78.18;;;;;;;1.59;57.98;97679.66;5108989;28;20020;-80
2021/03/16 00:29:23;;;;;;;207.25;81.72;;;;;;;1.65;58.04;97683.22;5108694;28;20499;-80
2021/03/16 00:31:48;;;;;;;177.82;66.00;;;;;;;1.66;58.14;97675.91;5110249;28;20088;-81
2021/03/16 00:34:14;;;;;;;182.35;69.53;;;;;;;1.65;57.80;97680.50;5110264;28;20039;-81
2021/03/16 00:36:40;;;;;;;176.75;68.95;;;;;;;1.63;57.95;97686.16;5109094;28;20023;-80
2021/03/16 00:39:06;;;;;;;165.57;61.33;;;;;;;1.63;57.98;97682.66;5109629;28;20023;-81
2021/03/16 00:41:31;;;;;;;149.05;59.17;;;;;;;1.59;57.91;97681.53;5091793;28;20031;-81
2021/03/16 00:43:57;;;;;;;142.10;57.75;;;;;;;1.57;58.12;97691.78;5109228;28;20451;-81
2021/03/16 00:46:22;;;;;;;161.70;61.92;;;;;;;1.54;57.93;97684.19;5109260;28;20502;-80
2021/03/16 00:48:48;;;;;;;152.55;64.78;;;;;;;1.52;58.37;97687.16;5108877;28;20483;-81
2021/03/16 00:51:13;;;;;;;152.27;62.28;;;;;;;1.50;58.22;97686.59;5109119;28;20071;-81
2021/03/16 00:53:38;;;;;;;153.75;59.00;;;;;;;1.46;58.16;97682.78;5108903;28;20016;-81
2021/03/16 00:56:04;;;;;;;141.25;58.22;;;;;;;1.43;58.53;97685.97;5108615;28;20103;-81
2021/03/16 00:58:31;;;;;;;138.90;55.60;;;;;;;1.42;58.20;97678.94;5108573;28;20027;-80
2021/03/16 01:00:57;;;;;;;126.57;49.90;;;;;;;1.42;58.10;97679.78;5108856;28;20015;-81
2021/03/16 01:03:24;;;;;;;138.25;52.53;;;;;;;1.46;58.26;97688.16;5108714;28;20096;-81
2021/03/16 01:05:50;;;;;;;123.20;47.90;;;;;;;1.49;58.18;97691.16;5108034;28;20051;-81
2021/03/16 01:08:17;;;;;;;127.85;49.30;;;;;;;1.55;58.27;97691.22;5107884;28;20349;-80
2021/03/16 01:10:43;;;;;;;123.45;48.50;;;;;;;1.62;58.55;97689.97;5108851;28;20030;-80
2021/03/16 01:13:09;;;;;;;134.38;55.53;;;;;;;1.64;58.29;97681.56;5108407;28;20447;-80
2021/03/16 01:15:34;;;;;;;159.63;64.50;;;;;;;1.71;58.48;97684.06;5108772;28;20139;-80
2021/03/16 01:18:00;;;;;;;156.98;64.93;;;;;;;1.76;58.58;97678.69;5107964;28;20418;-80
2021/03/16 01:20:26;;;;;;;163.15;63.67;;;;;;;1.80;58.22;97679.00;5108810;28;20020;-81
2021/03/16 01:22:52;;;;;;;181.73;69.75;;;;;;;1.64;58.03;97681.56;5108302;28;20391;-81
2021/03/16 01:25:17;;;;;;;162.60;65.25;;;;;;;1.59;58.08;97676.94;5108780;28;20035;-81
2021/03/16 01:27:44;;;;;;;161.45;64.35;;;;;;;1.58;58.32;97683.44;5107663;28;20710;-80
2021/03/16 01:30:10;;;;;;;157.70;63.42;;;;;;;1.59;58.17;97690.47;5108300;28;20043;-81
2021/03/16 01:32:36;;;;;;;118.68;47.25;;;;;;;1.60;58.82;97693.97;5108171;28;20570;-81
2021/03/16 01:35:03;;;;;;;103.85;42.90;;;;;;;1.59;58.41;97690.47;5108483;28;20097;-81
2021/03/16 01:37:29;;;;;;;93.47;40.17;;;;;;;1.56;58.72;97688.28;5107735;28;20016;-80
2021/03/16 01:39:55;;;;;;;93.03;40.17;;;;;;;1.54;58.68;97681.47;5108219;28;20041;-81
2021/03/16 01:42:20;;;;;;;90.68;37.78;;;;;;;1.52;58.56;97679.03;5105486;28;20464;-80
2021/03/16 01:44:46;;;;;;;78.70;32.75;;;;;;;1.55;58.71;97680.41;5108306;28;20020;-81
2021/03/16 01:47:14;;;;;;;84.00;34.35;;;;;;;1.58;58.78;97674.50;5108052;28;20451;-80
2021/03/16 01:49:40;;;;;;;80.85;34.85;;;;;;;1.59;58.82;97684.22;5108229;28;20495;-81
2021/03/16 01:52:06;;;;;;;77.35;34.95;;;;;;;1.61;58.77;97684.78;5108325;28;20024;-80
2021/03/16 01:54:31;;;;;;;79.13;32.97;;;;;;;1.66;59.04;97684.84;5108152;28;20028;-80
2021/03/16 01:57:00;;;;;;;75.28;33.10;;;;;;;1.73;59.00;97688.16;5108302;28;20104;-80
2021/03/16 01:59:27;;;;;;;75.20;32.78;;;;;;;1.77;59.03;97691.97;5108168;28;20038;-81
2021/03/16 02:01:52;;;;;;;87.68;34.65;;;;;;;1.80;59.10;97689.81;5090071;28;20478;-80
2021/03/16 02:04:17;;;;;;;87.82;35.53;;;;;;;1.78;58.90;97688.19;5108001;28;20069;-81
2021/03/16 02:06:52;;;;;;;94.45;35.13;;;;;;;1.79;58.68;97697.09;5108004;28;20024;-81
2021/03/16 02:09:43;;;;;;;66.55;29.20;;;;;;;1.76;58.78;97701.16;5089350;28;20047;-81
2021/03/16 02:12:14;;;;;;;65.68;29.08;;;;;;;1.73;58.64;97698.97;5106477;28;20479;-81
2021/03/16 02:14:50;;;;;;;55.72;25.85;;;;;;;1.70;58.98;97699.47;5108193;28;20027;-82
2021/03/16 02:17:22;;;;;;;67.57;28.88;;;;;;;1.72;59.48;97699.19;5110950;28;20023;-80
2021/03/16 02:20:08;;;;;;;65.63;27.85;;;;;;;1.81;59.46;97705.78;5092610;28;20075;-79
2021/03/16 02:22:36;;;;;;;66.15;29.80;;;;;;;1.94;59.25;97704.53;5111231;28;20438;-80
2021/03/16 02:25:38;;;;;;;63.92;28.27;;;;;;;1.96;59.19;97705.09;5112057;28;20046;-79
2021/03/16 02:28:21;;;;;;;63.88;29.45;;;;;;;1.99;59.32;97709.97;5091016;28;20032;-80
2021/03/16 02:30:47;;;;;;;75.30;31.83;;;;;;;2.03;59.06;97713.00;5109852;28;20020;-81
2021/03/16 02:33:17;;;;;;;69.90;31.48;;;;;;;2.01;58.85;97713.25;5093286;28;20036;-80
2021/03/16 02:35:48;;;;;;;78.57;32.88;;;;;;;2.02;59.13;97711.38;5109611;28;20032;-80
2021/03/16 02:38:15;;;;;;;183.88;67.35;;;;;;;2.03;59.33;97716.50;5111358;28;20130;-81
2021/03/16 02:40:42;;;;;;;218.07;81.30;;;;;;;2.00;59.65;97714.31;5111921;28;20031;-80
2021/03/16 02:43:09;;;;;;;198.75;76.53;;;;;;;1.98;59.23;97702.13;5111502;28;20027;-80
2021/03/16 02:45:35;;;;;;;214.02;80.40;;;;;;;1.97;59.05;97705.91;5111392;28;20505;-80
2021/03/16 02:48:02;;;;;;;217.80;79.30;;;;;;;1.96;59.38;97705.09;5111119;28;20384;-81
2021/03/16 02:50:29;;;;;;;208.13;77.68;;;;;;;2.03;59.39;97707.59;5111261;28;20110;-80
2021/03/16 02:52:55;;;;;;;203.38;78.68;;;;;;;2.06;59.24;97699.75;5111035;28;20031;-80
2021/03/16 02:55:22;;;;;;;208.73;77.03;;;;;;;2.03;59.26;97705.69;5111354;28;20566;-80
2021/03/16 02:57:48;;;;;;;210.75;79.78;;;;;;;2.00;59.30;97708.09;5111101;28;20035;-80
2021/03/16 03:00:16;;;;;;;208.68;79.13;;;;;;;1.95;59.16;97718.88;5111437;28;20111;-80
2021/03/16 03:02:45;;;;;;;184.70;70.50;;;;;;;1.84;59.29;97720.66;5110911;28;20020;-80
2021/03/16 03:05:13;;;;;;;163.02;60.80;;;;;;;1.79;59.71;97726.84;5111258;28;20122;-80
2021/03/16 03:07:40;;;;;;;149.25;59.47;;;;;;;1.78;59.60;97715.22;5110443;28;20031;-80
2021/03/16 03:10:07;;;;;;;141.63;55.92;;;;;;;1.78;59.82;97714.41;5111056;28;20039;-80
2021/03/16 03:12:32;;;;;;;145.00;56.63;;;;;;;1.84;59.99;97718.78;5110731;28;20031;-81
2021/03/16 03:14:58;;;;;;;138.48;53.63;;;;;;;1.83;60.03;97717.16;5110786;28;20047;-80
2021/03/16 03:17:26;;;;;;;134.88;53.53;;;;;;;1.80;59.68;97727.69;5110545;28;20024;-80
2021/03/16 03:19:51;;;;;;;142.50;55.05;;;;;;;1.78;60.29;97726.03;5111187;28;20559;-81
2021/03/16 03:22:19;;;;;;;145.75;55.90;;;;;;;1.84;59.99;97726.06;5110686;28;20127;-80
2021/03/16 03:25:08;;;;;;;134.60;52.95;;;;;;;1.84;59.91;97731.47;5110338;28;20106;-80
2021/03/16 03:27:38;;;;;;;138.90;52.85;;;;;;;1.77;60.20;97739.81;5109012;28;20020;-81
2021/03/16 03:30:06;;;;;;;122.00;47.42;;;;;;;1.70;60.22;97731.09;5108532;28;20023;-81
2021/03/16 03:32:33;;;;;;;95.85;40.45;;;;;;;1.63;60.35;97745.63;5110387;28;20543;-80
2021/03/16 03:35:01;;;;;;;89.18;38.28;;;;;;;1.59;60.72;97743.69;5110504;28;20103;-80
2021/03/16 03:37:27;;;;;;;80.88;33.35;;;;;;;1.55;60.79;97746.09;5109805;28;20027;-80
2021/03/16 03:39:53;;;;;;;69.22;31.15;;;;;;;1.56;60.90;97750.44;5110724;28;20024;-80
2021/03/16 03:42:20;;;;;;;70.05;30.23;;;;;;;1.58;60.60;97751.00;5110066;28;20027;-80
2021/03/16 03:44:47;;;;;;;66.38;28.83;;;;;;;1.51;60.80;97744.97;5092086;28;20519;-80
2021/03/16 03:47:15;;;;;;;72.22;32.10;;;;;;;1.46;60.86;97744.91;5110207;28;20027;-80
2021/03/16 03:49:42;;;;;;;82.78;36.05;;;;;;;1.35;61.26;97749.41;5110086;28;20044;-80
2021/03/16 03:52:12;;;;;;;82.00;36.03;;;;;;;1.27;61.14;97753.34;5110288;28;20035;-81
2021/03/16 03:54:44;;;;;;;98.70;38.78;;;;;;;1.19;60.74;97757.31;5109811;28;20031;-80
2021/03/16 03:57:12;;;;;;;105.53;42.15;;;;;;;1.18;61.24;97755.69;5108207;28;20019;-81
2021/03/16 03:59:44;;;;;;;119.43;46.92;;;;;;;1.09;61.26;97762.59;5109607;28;20490;-80
2021/03/16 04:02:10;;;;;;;123.90;49.60;;;;;;;1.02;61.14;97762.81;5110162;28;20295;-80
2021/03/16 04:04:38;;;;;;;139.65;52.97;;;;;;;0.99;61.63;97765.19;5110047;28;20417;-80
2021/03/16 04:07:05;;;;;;;147.70;58.65;;;;;;;1.01;61.52;97763.06;5107240;28;20027;-80
2021/03/16 04:09:31;;;;;;;147.93;56.80;;;;;;;1.02;61.62;97764.66;5109490;28;20484;-80
2021/03/16 04:11:58;;;;;;;141.48;57.03;;;;;;;1.02;61.48;97767.38;5110062;28;20027;-81
2021/03/16 04:14:25;;;;;;;156.85;58.50;;;;;;;0.99;61.34;97770.59;5108506;28;20026;-80
2021/03/16 04:16:52;;;;;;;156.18;59.58;;;;;;;0.98;61.41;97771.66;5109855;28;20059;-81
2021/03/16 04:19:18;;;;;;;152.40;58.65;;;;;;;0.97;61.56;97775.44;5109917;28;20024;-80
2021/03/16 04:21:44;;;;;;;164.27;63.05;;;;;;;0.96;61.41;97774.59;5109620;28;20064;-81
2021/03/16 04:24:12;;;;;;;155.15;59.33;;;;;;;0.95;61.58;97775.66;5109573;28;20094;-80
2021/03/16 04:26:37;;;;;;;149.88;59.53;;;;;;;0.96;61.15;97771.09;5109154;28;20023;-80
2021/03/16 04:29:02;;;;;;;139.10;55.83;;;;;;;0.95;61.63;97780.25;5109202;28;20060;-80
2021/03/16 04:31:28;;;;;;;133.98;54.88;;;;;;;0.89;61.49;97779.34;5109860;28;20023;-80
2021/03/16 04:33:53;;;;;;;135.57;54.88;;;;;;;0.83;61.61;97783.06;5111026;28;20027;-80
2021/03/16 04:36:19;;;;;;;95.03;38.85;;;;;;;0.74;61.79;97782.69;5111266;28;20376;-80
2021/03/16 04:38:44;;;;;;;83.65;35.85;;;;;;;0.70;62.42;97789.63;5112121;28;20034;-80
2021/03/16 04:41:09;;;;;;;85.65;36.78;;;;;;;0.61;62.50;97783.84;5112457;28;20027;-81
2021/03/16 04:43:35;;;;;;;94.65;40.13;;;;;;;0.51;63.06;97783.69;5112266;28;20109;-80
2021/03/16 04:46:00;;;;;;;109.65;43.75;;;;;;;0.43;63.21;97785.75;5094082;28;20019;-79
2021/03/16 04:48:26;;;;;;;107.53;43.72;;;;;;;0.40;63.68;97785.44;5112459;28;20019;-80
2021/03/16 04:50:51;;;;;;;99.63;41.60;;;;;;;0.39;63.31;97783.78;5112542;28;20024;-80
2021/03/16 04:53:17;;;;;;;99.88;41.00;;;;;;;0.38;63.89;97793.78;5112326;28;20366;-80
2021/03/16 04:55:42;;;;;;;77.63;34.08;;;;;;;0.45;64.06;97801.69;5112106;28;20042;-81
2021/03/16 04:58:07;;;;;;;84.47;36.15;;;;;;;0.51;64.31;97799.88;5093951;28;20049;-80
2021/03/16 05:00:33;;;;;;;88.90;39.72;;;;;;;0.57;64.24;97798.91;5112341;28;20045;-80
2021/03/16 05:02:58;;;;;;;88.20;38.63;;;;;;;0.69;64.55;97796.09;5112262;28;20023;-80
2021/03/16 05:05:23;;;;;;;79.38;35.78;;;;;;;0.80;64.32;97797.88;5091182;28;20388;-81
2021/03/16 05:07:49;;;;;;;68.70;29.60;;;;;;;0.89;65.33;97800.97;5112016;28;20040;-79
2021/03/16 05:10:14;;;;;;;134.15;43.45;;;;;;;0.93;65.83;97801.28;5111875;28;20039;-80
2021/03/16 05:12:41;;;;;;;170.77;48.85;;;;;;;1.00;65.48;97810.03;5111559;28;20049;-80
2021/03/16 05:15:07;;;;;;;157.95;45.22;;;;;;;1.06;65.39;97806.31;5111577;28;20026;-80
2021/03/16 05:17:33;;;;;;;105.13;34.88;;;;;;;1.14;65.18;97811.28;5111300;28;20066;-80
2021/03/16 05:19:58;;;;;;;73.60;29.95;;;;;;;1.17;65.49;97799.19;5111594;28;20076;-80
2021/03/16 05:22:24;;;;;;;85.13;37.88;;;;;;;1.23;65.73;97814.34;5109942;28;20019;-80
2021/03/16 05:24:49;;;;;;;121.50;61.38;;;;;;;1.26;65.44;97807.66;5111539;28;20543;-80
2021/03/16 05:27:15;;;;;;;79.43;36.78;;;;;;;1.31;66.01;97816.63;5111639;28;20019;-80
2021/03/16 05:29:40;;;;;;;67.28;32.70;;;;;;;1.33;65.41;97816.38;5093688;28;20371;-79
2021/03/16 05:32:06;;;;;;;81.18;37.50;;;;;;;1.39;65.63;97814.56;5111489;28;20047;-80
2021/03/16 05:34:31;;;;;;;88.07;39.28;;;;;;;1.49;65.64;97826.28;5111532;28;20016;-79
2021/03/16 05:36:57;;;;;;;93.28;39.55;;;;;;;1.60;65.63;97829.13;5111508;28;20063;-78
2021/03/16 05:39:23;;;;;;;141.52;56.45;;;;;;;1.69;65.72;97830.31;5111418;28;20353;-79
2021/03/16 05:41:49;;;;;;;106.75;43.13;;;;;;;1.82;65.95;97829.09;5111554;28;20102;-79
2021/03/16 05:44:16;;;;;;;123.90;48.97;;;;;;;1.97;65.56;97836.53;5111616;28;20041;-78
2021/03/16 05:46:42;;;;;;;90.13;36.83;;;;;;;2.04;65.38;97839.84;5093035;28;20023;-78
2021/03/16 05:49:08;;;;;;;78.75;34.45;;;;;;;2.02;65.96;97836.59;5111442;28;20019;-78
2021/03/16 05:51:34;;;;;;;62.47;29.15;;;;;;;2.07;66.33;97835.81;5113267;28;20153;-78
2021/03/16 05:54:00;;;;;;;109.05;45.00;;;;;;;2.03;66.67;97830.09;5115726;28;20051;-78
2021/03/16 05:56:25;;;;;;;74.13;32.85;;;;;;;2.01;66.34;97836.84;5115637;28;20104;-78
2021/03/16 05:58:52;;;;;;;78.78;35.40;;;;;;;2.04;66.41;97844.44;5115465;28;20028;-79
2021/03/16 06:01:18;;;;;;;63.25;30.15;;;;;;;2.04;66.83;97842.56;5115449;28;20031;-78
2021/03/16 06:03:46;;;;;;;63.10;31.25;;;;;;;2.00;66.19;97849.53;5115512;28;20030;-78
2021/03/16 06:06:12;;;;;;;65.38;31.73;;;;;;;2.01;66.18;97847.69;5115341;28;20020;-79
2021/03/16 06:08:37;;;;;;;68.90;33.05;;;;;;;2.03;66.72;97859.84;5115278;28;20394;-78
2021/03/16 06:11:06;;;;;;;55.80;27.95;;;;;;;2.07;66.79;97854.75;5115182;28;20126;-79
2021/03/16 06:13:32;;;;;;;60.35;28.02;;;;;;;2.06;66.85;97853.94;5115269;28;20106;-80
2021/03/16 06:15:59;;;;;;;51.22;23.98;;;;;;;2.16;67.10;97852.41;5115151;28;20131;-80
2021/03/16 06:18:26;;;;;;;53.35;26.92;;;;;;;2.17;66.47;97857.56;5112378;28;20131;-80
2021/03/16 06:21:03;;;;;;;56.63;28.50;;;;;;;2.20;67.34;97853.53;5114377;28;20020;-81
2021/03/16 06:23:30;;;;;;;62.78;29.98;;;;;;;2.19;66.84;97860.81;5111241;28;20030;-81
2021/03/16 06:25:57;;;;;;;64.13;32.28;;;;;;;2.19;67.36;97857.31;5114375;28;20038;-81
2021/03/16 06:28:30;;;;;;;74.65;35.70;;;;;;;2.29;67.12;97857.38;5114942;28;20023;-81
2021/03/16 06:30:56;;;;;;;67.60;31.20;;;;;;;2.44;67.25;97862.13;5114912;28;20028;-82
2021/03/16 06:33:23;;;;;;;56.10;27.85;;;;;;;2.46;67.12;97870.78;5114892;28;20020;-81
2021/03/16 06:36:03;;;;;;;66.75;34.03;;;;;;;2.49;67.29;97869.47;5096835;28;20019;-81
2021/03/16 06:38:29;;;;;;;43.67;21.58;;;;;;;2.57;66.87;97868.16;5112576;28;20042;-81
2021/03/16 06:41:18;;;;;;;45.17;22.77;;;;;;;2.54;67.74;97861.41;5114726;28;20059;-81
2021/03/16 06:44:01;;;;;;;45.03;21.77;;;;;;;2.60;67.31;97870.38;5114534;28;20472;-81
2021/03/16 06:46:34;;;;;;;46.25;23.90;;;;;;;2.70;67.37;97875.03;5112461;28;20383;-81
2021/03/16 06:49:00;;;;;;;46.72;21.80;;;;;;;2.76;67.85;97874.00;5114462;28;20047;-82
2021/03/16 06:51:31;;;;;;;47.67;22.20;;;;;;;2.79;67.48;97878.91;5097585;28;20049;-82
2021/03/16 06:54:09;;;;;;;52.67;26.40;;;;;;;2.89;68.28;97873.56;5115841;28;20028;-82
2021/03/16 06:56:35;;;;;;;67.68;28.00;;;;;;;2.92;67.63;97873.06;5115878;28;20486;-83
2021/03/16 06:59:04;;;;;;;40.60;20.52;;;;;;;2.92;67.35;97873.06;5115734;28;20364;-82
2021/03/16 07:01:31;;;;;;;48.72;22.23;;;;;;;2.93;67.75;97874.69;5115741;28;20038;-82
2021/03/16 07:03:59;;;;;;;44.53;24.27;;;;;;;2.91;67.78;97878.72;5097416;28;20028;-82
2021/03/16 07:06:25;;;;;;;51.55;24.38;;;;;;;2.95;67.43;97879.81;5115855;28;20357;-82
2021/03/16 07:08:52;;;;;;;40.72;18.38;;;;;;;3.00;67.42;97884.47;5097176;28;20500;-82
2021/03/16 07:11:24;;;;;;;47.40;22.92;;;;;;;2.97;67.61;97883.91;5115410;28;20032;-83
2021/03/16 07:13:51;;;;;;;50.22;26.55;;;;;;;2.97;67.72;97880.38;5115663;28;20024;-82
2021/03/16 07:16:17;;;;;;;43.85;22.30;;;;;;;3.08;68.09;97879.38;5080418;28;20028;-82
2021/03/16 07:18:46;;;;;;;38.33;19.15;;;;;;;3.24;67.54;97885.69;5115583;28;20028;-82
2021/03/16 07:21:25;;;;;;;39.65;20.15;;;;;;;3.28;68.19;97891.41;5115877;28;20031;-82
2021/03/16 07:24:05;;;;;;;28.43;15.40;;;;;;;3.35;67.73;97896.59;5115631;28;20031;-81
2021/03/16 07:26:31;;;;;;;29.33;15.07;;;;;;;3.31;67.74;97895.50;5115280;28;20073;-82
2021/03/16 07:28:57;;;;;;;26.85;13.93;;;;;;;3.28;68.24;97902.25;5115279;28;20426;-82
2021/03/16 07:31:24;;;;;;;32.05;15.27;;;;;;;3.27;67.90;97906.84;5115075;28;20024;-81
2021/03/16 07:33:50;;;;;;;43.63;17.23;;;;;;;3.30;68.14;97910.94;5097062;28;20023;-82
2021/03/16 07:36:16;;;;;;;24.80;13.30;;;;;;;3.40;68.01;97912.91;5115173;28;20035;-82
2021/03/16 07:38:41;;;;;;;32.67;17.70;;;;;;;3.43;67.76;97912.38;5115089;28;20042;-83
2021/03/16 07:41:09;;;;;;;27.33;14.00;;;;;;;3.46;67.65;97916.44;5114941;28;20024;-82
2021/03/16 07:43:39;;;;;;;29.25;15.65;;;;;;;3.48;67.70;97923.22;5096591;28;20110;-82
2021/03/16 07:46:13;;;;;;;28.25;14.85;;;;;;;3.54;67.87;97924.09;5114872;28;20498;-82
2021/03/16 07:48:44;;;;;;;46.58;17.17;;;;;;;3.51;67.41;97930.84;5114829;28;20032;-82
2021/03/16 07:51:20;;;;;;;53.10;19.75;;;;;;;3.51;67.73;97928.13;5114643;28;20049;-81
2021/03/16 07:54:02;;;;;;;60.92;23.60;;;;;;;3.55;67.97;97939.28;5114865;28;20031;-82
2021/03/16 07:56:31;;;;;;;37.38;17.92;;;;;;;3.60;67.79;97933.88;5114936;28;20473;-81
2021/03/16 07:58:57;;;;;;;29.02;15.40;;;;;;;3.65;67.40;97942.06;5114887;28;20028;-82
2021/03/16 08:01:23;;;;;;;29.38;14.68;;;;;;;3.70;67.48;97927.69;5114729;28;20379;-82
2021/03/16 08:03:50;;;;;;;31.20;17.08;;;;;;;3.81;67.82;97932.09;5114679;28;20063;-81
2021/03/16 08:06:26;;;;;;;28.25;16.10;;;;;;;3.92;67.61;97932.94;5114698;28;20023;-82
2021/03/16 08:08:53;;;;;;;38.55;17.60;;;;;;;4.06;67.00;97935.16;5114133;28;20039;-82
2021/03/16 08:11:19;;;;;;;52.38;22.42;;;;;;;4.14;67.27;97937.34;5114375;28;20062;-81
2021/03/16 08:13:59;;;;;;;31.55;15.75;;;;;;;4.12;67.25;97940.31;5095593;28;20100;-81
2021/03/16 08:16:35;;;;;;;;;;;;;;;4.13;67.08;97935.69;5114875;28;20030;-81
2021/03/16 08:19:13;;;;;;;31.65;17.10;;;;;;;4.14;66.87;97940.03;5114602;28;19912;-81
2021/03/16 08:21:40;;;;;;;50.30;23.88;;;;;;;4.26;66.56;97943.34;5114420;28;20039;-81
2021/03/16 08:24:15;;;;;;;53.00;27.20;;;;;;;4.40;66.81;97945.56;5114426;28;20027;-82
2021/03/16 08:26:47;;;;;;;50.45;27.55;;;;;;;4.58;66.44;97944.22;5114266;28;20051;-80
2021/03/16 08:29:14;;;;;;;32.50;18.35;;;;;;;4.67;66.27;97942.63;5114070;28;20082;-81
2021/03/16 08:31:40;;;;;;;39.65;20.77;;;;;;;4.72;66.29;97939.88;5113969;28;20031;-81
2021/03/16 08:34:09;;;;;;;43.78;21.67;;;;;;;4.78;65.79;97946.16;5113977;28;20038;-81
2021/03/16 08:36:42;;;;;;;41.90;18.40;;;;;;;4.73;64.89;97952.38;5113903;28;20028;-80
2021/03/16 08:39:09;;;;;;;42.65;19.20;;;;;;;4.70;65.07;97950.19;5113846;28;20265;-81
2021/03/16 08:41:34;;;;;;;30.27;15.20;;;;;;;4.59;65.38;97948.56;5114159;28;20032;-80
2021/03/16 08:44:00;;;;;;;22.00;13.77;;;;;;;4.50;64.59;97939.31;5113929;28;20027;-80
2021/03/16 08:46:36;;;;;;;39.50;23.30;;;;;;;4.49;64.60;97946.63;5113983;28;20357;-79
2021/03/16 08:49:02;;;;;;;24.67;16.08;;;;;;;4.53;64.42;97953.16;5113781;28;20024;-78
2021/03/16 08:51:29;;;;;;;23.75;14.38;;;;;;;4.48;65.11;97945.03;5113895;28;20107;-78
2021/03/16 08:53:55;;;;;;;26.77;14.48;;;;;;;4.48;64.57;97955.91;5114006;28;20111;-79
2021/03/16 08:56:23;;;;;;;30.48;15.90;;;;;;;4.41;64.60;97953.44;5114015;28;20098;-79
2021/03/16 08:58:50;;;;;;;25.05;14.63;;;;;;;4.39;65.01;97952.88;5095996;28;20386;-78
2021/03/16 09:01:26;;;;;;;30.25;15.20;;;;;;;4.35;64.34;97950.97;5113864;28;20024;-79
2021/03/16 09:03:52;;;;;;;34.15;17.92;;;;;;;4.39;65.05;97955.59;5078437;28;20059;-76
2021/03/16 09:06:19;;;;;;;20.33;12.18;;;;;;;4.39;64.73;97947.44;5113471;28;20078;-78
2021/03/16 09:08:49;;;;;;;24.98;15.98;;;;;;;4.39;64.92;97961.03;5113069;28;20492;-79
2021/03/16 09:11:30;;;;;;;32.88;16.58;;;;;;;4.39;64.23;97954.78;5094907;28;20529;-77
2021/03/16 09:14:28;;;;;;;22.48;13.25;;;;;;;4.45;64.16;97953.72;5095015;28;20549;-78
2021/03/16 09:16:55;;;;;;;13.93;7.40;;;;;;;4.46;64.18;97967.00;5056925;28;20043;-78
2021/03/16 09:19:26;;;;;;;15.30;8.38;;;;;;;4.39;63.96;97963.72;5112936;28;20532;-77
2021/03/16 09:22:00;;;;;;;18.80;9.60;;;;;;;4.37;64.24;97970.53;5113062;28;20023;-77
2021/03/16 09:24:29;;;;;;;16.90;10.60;;;;;;;4.38;64.37;97975.69;5112857;28;20049;-77
2021/03/16 09:26:57;;;;;;;26.30;14.00;;;;;;;4.31;64.08;97972.41;5111939;28;20020;-78
2021/03/16 09:29:38;;;;;;;17.83;10.65;;;;;;;4.23;64.78;97981.09;5112621;28;20019;-78
2021/03/16 09:32:08;;;;;;;31.17;16.73;;;;;;;4.17;64.95;97983.78;5112463;28;20028;-78
2021/03/16 09:34:39;;;;;;;16.23;10.63;;;;;;;4.12;64.57;97980.22;5111707;28;20023;-79
2021/03/16 09:37:08;;;;;;;18.42;10.48;;;;;;;4.11;64.83;97973.97;5111595;28;20059;-78
2021/03/16 09:39:34;;;;;;;24.35;12.85;;;;;;;4.15;65.22;97980.50;5110934;28;20433;-79
2021/03/16 09:42:02;;;;;;;17.60;8.73;;;;;;;4.29;64.68;97985.41;5110965;28;20114;-79
2021/03/16 09:44:32;;;;;;;14.48;8.82;;;;;;;4.36;64.84;97990.63;5111972;28;20028;-77
2021/03/16 09:46:58;;;;;;;11.80;7.75;;;;;;;4.41;64.05;97986.00;5112567;28;20023;-76
2021/03/16 09:49:28;;;;;;;29.35;17.38;;;;;;;4.57;64.77;97986.06;5112528;28;20016;-77
2021/03/16 09:51:54;;;;;;;17.02;13.00;;;;;;;4.76;63.95;97997.22;5112728;28;20041;-77
2021/03/16 09:54:19;;;;;;;11.45;7.82;;;;;;;4.87;63.64;97990.72;5112801;28;20471;-78
2021/03/16 09:56:50;;;;;;;10.98;7.60;;;;;;;4.93;63.13;97991.53;5112739;28;20110;-78
2021/03/16 09:59:16;;;;;;;11.18;7.45;;;;;;;4.98;63.29;97988.81;5111949;28;20095;-78
2021/03/16 10:01:44;;;;;;;50.67;18.70;;;;;;;4.99;63.41;97985.03;5112655;28;20034;-78
2021/03/16 10:04:15;;;;;;;27.35;12.48;;;;;;;5.03;63.53;97988.84;5111624;28;20019;-78
2021/03/16 10:06:42;;;;;;;14.20;7.28;;;;;;;5.01;62.79;98001.88;5112122;28;20036;-77
2021/03/16 10:09:15;;;;;;;10.85;6.13;;;;;;;4.86;62.47;97993.69;5112052;28;20059;-78
2021/03/16 10:11:41;;;;;;;11.73;6.90;;;;;;;4.73;62.86;97995.03;5112111;28;20046;-78
2021/03/16 10:14:06;;;;;;;8.25;5.45;;;;;;;4.66;63.00;97995.31;5112299;28;20019;-79
2021/03/16 10:16:32;;;;;;;12.77;7.03;;;;;;;4.51;63.12;97998.78;5112550;28;20023;-79
2021/03/16 10:18:57;;;;;;;7.65;5.28;;;;;;;4.36;63.56;98004.19;5111566;28;20480;-78
2021/03/16 10:21:34;;;;;;;8.35;5.80;;;;;;;4.25;64.40;98004.16;5112570;28;20024;-77
2021/03/16 10:24:04;;;;;;;10.05;6.03;;;;;;;4.13;64.81;98011.69;5112681;28;20038;-79
2021/03/16 10:26:29;;;;;;;10.70;6.57;;;;;;;4.03;64.62;98020.63;5112651;28;20077;-78
2021/03/16 10:28:55;;;;;;;8.10;5.80;;;;;;;3.95;64.58;98018.41;5112592;28;20028;-78
2021/03/16 10:31:23;;;;;;;18.00;9.93;;;;;;;3.88;64.85;98013.22;5112478;28;20019;-79
2021/03/16 10:33:53;;;;;;;13.48;7.50;;;;;;;3.82;64.81;98025.94;5112473;28;20031;-78
2021/03/16 10:36:22;;;;;;;16.13;8.57;;;;;;;3.86;65.32;98023.50;5112564;28;20466;-77
2021/03/16 10:38:51;;;;;;;14.98;8.45;;;;;;;3.85;65.98;98022.72;5116162;28;20023;-79
2021/03/16 10:41:18;;;;;;;13.27;8.63;;;;;;;3.87;65.88;98022.44;5116166;28;20084;-78
2021/03/16 10:43:44;;;;;;;10.82;7.05;;;;;;;3.88;65.95;98027.59;5116113;28;20046;-78
2021/03/16 10:46:09;;;;;;;13.50;7.85;;;;;;;3.88;65.88;98027.59;5115891;28;20502;-78
2021/03/16 10:48:35;;;;;;;13.70;8.07;;;;;;;3.93;65.89;98024.09;5115882;28;20035;-78
2021/03/16 10:51:00;;;;;;;13.20;8.48;;;;;;;3.94;65.82;98020.31;5080749;28;20024;-78
2021/03/16 10:53:26;;;;;;;18.55;10.63;;;;;;;4.01;66.07;98022.78;5115865;28;20032;-78
2021/03/16 10:55:51;;;;;;;24.55;10.82;;;;;;;4.06;66.45;98025.50;5115956;28;20030;-78
2021/03/16 10:58:17;;;;;;;16.38;10.38;;;;;;;4.06;65.77;98016.56;5115860;28;20027;-78
2021/03/16 11:00:42;;;;;;;12.43;7.82;;;;;;;4.07;65.52;98029.06;5115796;28;20119;-78
2021/03/16 11:03:08;;;;;;;13.60;8.40;;;;;;;4.07;66.31;98026.34;5115464;28;20472;-78
2021/03/16 11:05:34;;;;;;;11.30;7.63;;;;;;;4.11;65.84;98024.72;5115672;28;20038;-77
2021/03/16 11:07:59;;;;;;;15.52;8.45;;;;;;;4.14;65.53;98021.47;5115295;28;20514;-77
2021/03/16 11:10:25;;;;;;;18.10;8.57;;;;;;;4.19;66.17;98026.91;5115176;28;20051;-78
2021/03/16 11:12:51;;;;;;;29.50;13.60;;;;;;;4.20;65.68;98027.75;5110286;28;20111;-79
2021/03/16 11:15:16;;;;;;;25.15;12.45;;;;;;;4.24;65.98;98021.53;5114848;28;20020;-78
2021/03/16 11:17:43;;;;;;;28.73;10.82;;;;;;;4.35;66.00;98014.22;5115000;28;20461;-78
2021/03/16 11:20:09;;;;;;;30.30;10.40;;;;;;;4.52;65.94;98022.16;5114975;28;20031;-79
2021/03/16 11:22:35;;;;;;;15.25;7.57;;;;;;;4.74;65.42;98012.97;5112620;28;20375;-78
2021/03/16 11:25:00;;;;;;;11.52;6.53;;;;;;;4.87;65.89;98012.47;5096215;28;20016;-79
2021/03/16 11:27:26;;;;;;;11.60;7.18;;;;;;;4.90;64.94;98009.19;5114628;28;20030;-79